Xihua, China
Current Conditions -  °F | °C
As of 12:00 AM on Monday 22 Dec 2014 (Local Time) from ZHCC Reporting Station
Clear Clear  
Wind Chill: 30°   Ceiling: Unl
Heat Index: 30°   Visibility: 6mi
Dew Point:   Wind: 2mph
Humidity: 29%   Direction: NA
Pressure: 30.39"   Gusts: NA
Location:  33.79°N, 114.52°E
Report Text: ZHCC 211600Z VRB01MPS CAVOK M01/M17 Q1029 NOSIG
Loading
Personal Weather Stations






























Interactive Weather Map New forecast layout! Learn more

10-Day Weather Forecast

Advertisements
Track Severe Weather on mobile